Thebes, Arkansas
Current Conditions -  °F | °C
As of 9:53 AM on Sunday 25 Jan 2015 (Local Time) from KLLQ Reporting Station
Clear Clear  
Wind Chill: 50°   Ceiling: Unl
Heat Index: 50°   Visibility: 10mi
Dew Point: 37°   Wind: 15mph
Humidity: 61%   Direction: 260°W
Pressure: 29.81"   Gusts: 24mph
Location:  33.3267°N, 91.5515°W
Report Text: KLLQ 251553Z AUTO 26013G21KT 10SM CLR 10/03 A2981 RMK AO2 SLP095 T01000028
Loading
Personal Weather Stations






























Interactive Weather Map New forecast layout! Learn more

10-Day Weather Forecast

Advertisements
Track Severe Weather on mobile